Time;durP1;ratioP1;P1;durP2;ratioP2;P2;SDS_P1;SDS_P2;PMS_P1;PMS_P2;Temp;Humidity;BMP_temperature;BMP_pressure;BME280_temperature;BME280_humidity;BME280_pressure;Samples;Min_cycle;Max_cycle;Signal;HPM_P1;HPM_P2
2023/02/17 00:01:45;;;;;;;20.38;14.88;;;;;;;;;;10411251;28;20393;-55
2023/02/17 00:06:46;;;;;;;18.45;13.73;;;;;;;;;;10407033;28;20036;-56
2023/02/17 00:11:46;;;;;;;18.38;14.48;;;;;;;;;;10410859;28;20018;-51
2023/02/17 00:16:47;;;;;;;19.40;13.43;;;;;;;;;;10411246;28;20024;-54
2023/02/17 00:21:54;;;;;;;18.00;13.73;;;;;;;;;;10412401;28;20029;-54
2023/02/17 00:26:55;;;;;;;17.35;12.82;;;;;;;;;;10411787;28;20401;-54
2023/02/17 00:31:55;;;;;;;19.85;13.38;;;;;;;;;;10402916;28;20037;-56
2023/02/17 00:36:56;;;;;;;16.33;13.07;;;;;;;;;;10411517;28;20489;-58
2023/02/17 00:41:56;;;;;;;16.73;12.73;;;;;;;;;;10411309;28;20044;-57
2023/02/17 00:46:57;;;;;;;15.50;11.75;;;;;;;;;;10410908;28;20017;-55
2023/02/17 00:52:00;;;;;;;17.42;12.43;;;;;;;;;;10410889;28;20037;-55
2023/02/17 00:57:01;;;;;;;15.00;11.90;;;;;;;;;;10410735;28;20034;-59
2023/02/17 01:02:02;;;;;;;16.05;12.00;;;;;;;;;;10410847;28;20040;-58
2023/02/17 01:07:02;;;;;;;14.82;12.25;;;;;;;;;;10410350;28;20021;-60
2023/02/17 01:12:03;;;;;;;14.63;12.23;;;;;;;;;;10410326;28;20028;-59
2023/02/17 01:17:03;;;;;;;17.58;12.57;;;;;;;;;;10409829;28;20064;-55
2023/02/17 01:22:04;;;;;;;15.73;12.40;;;;;;;;;;10409757;28;20033;-58
2023/02/17 01:27:05;;;;;;;16.73;12.52;;;;;;;;;;10409655;28;20029;-55
2023/02/17 01:32:05;;;;;;;14.93;11.68;;;;;;;;;;10407121;28;20025;-58
2023/02/17 01:37:06;;;;;;;13.50;11.50;;;;;;;;;;10407034;28;20050;-58
2023/02/17 01:42:19;;;;;;;15.23;11.80;;;;;;;;;;10408623;28;20025;-58
2023/02/17 01:47:20;;;;;;;15.27;11.02;;;;;;;;;;10401100;28;20485;-59
2023/02/17 01:52:25;;;;;;;15.70;10.88;;;;;;;;;;10408616;28;20029;-59
2023/02/17 01:57:30;;;;;;;16.40;11.48;;;;;;;;;;10407827;28;20057;-59
2023/02/17 02:02:31;;;;;;;15.13;11.40;;;;;;;;;;10383817;28;20124;-55
2023/02/17 02:07:37;;;;;;;14.52;10.90;;;;;;;;;;10398861;28;20035;-58
2023/02/17 02:12:41;;;;;;;13.80;11.00;;;;;;;;;;10408160;28;20056;-58
2023/02/17 02:18:13;;;;;;;12.77;10.35;;;;;;;;;;10407109;28;20033;-56
2023/02/17 02:24:00;;;;;;;15.52;10.85;;;;;;;;;;10406836;28;20033;-59
2023/02/17 02:29:35;;;;;;;13.35;11.20;;;;;;;;;;10406265;28;20026;-59
2023/02/17 02:34:47;;;;;;;13.77;11.15;;;;;;;;;;10394618;28;20125;-58
2023/02/17 02:39:51;;;;;;;13.13;10.60;;;;;;;;;;10405878;28;20045;-58
2023/02/17 02:44:52;;;;;;;15.13;10.35;;;;;;;;;;10406194;28;20310;-57
2023/02/17 02:49:53;;;;;;;14.93;10.43;;;;;;;;;;10407462;28;20612;-57
2023/02/17 02:55:12;;;;;;;13.52;10.02;;;;;;;;;;10407400;28;20059;-57
2023/02/17 03:00:23;;;;;;;12.68;10.27;;;;;;;;;;10406247;28;20033;-57
2023/02/17 03:05:43;;;;;;;14.30;10.25;;;;;;;;;;10407467;28;20029;-55
2023/02/17 03:10:53;;;;;;;10.82;9.52;;;;;;;;;;10411574;28;20025;-55
2023/02/17 03:15:53;;;;;;;13.20;11.10;;;;;;;;;;10413956;28;20100;-56
2023/02/17 03:21:05;;;;;;;11.57;9.93;;;;;;;;;;10413539;28;20448;-56
2023/02/17 03:26:05;;;;;;;14.93;10.63;;;;;;;;;;10413138;28;20596;-55
2023/02/17 03:31:06;;;;;;;11.75;9.77;;;;;;;;;;10414054;28;20264;-55
2023/02/17 03:36:06;;;;;;;11.30;9.60;;;;;;;;;;10413729;28;20064;-56
2023/02/17 03:41:07;;;;;;;13.70;10.43;;;;;;;;;;10414289;28;20121;-55
2023/02/17 03:46:13;;;;;;;13.35;10.48;;;;;;;;;;10413965;28;20021;-56
2023/02/17 03:51:20;;;;;;;13.88;10.75;;;;;;;;;;10413994;28;20116;-57
2023/02/17 03:56:20;;;;;;;14.48;10.70;;;;;;;;;;10414197;28;20378;-57
2023/02/17 04:01:21;;;;;;;12.20;10.65;;;;;;;;;;10413403;28;20040;-55
2023/02/17 04:06:21;;;;;;;13.40;9.82;;;;;;;;;;10413270;28;20032;-56
2023/02/17 04:11:22;;;;;;;13.07;10.30;;;;;;;;;;10412876;28;20029;-55
2023/02/17 04:16:22;;;;;;;10.63;9.38;;;;;;;;;;10412649;28;20025;-59
2023/02/17 04:21:23;;;;;;;13.43;9.77;;;;;;;;;;10411724;28;20358;-58
2023/02/17 04:26:24;;;;;;;11.68;9.52;;;;;;;;;;10412301;28;20412;-56
2023/02/17 04:31:26;;;;;;;12.95;10.50;;;;;;;;;;10412254;28;20060;-59
2023/02/17 04:36:27;;;;;;;10.35;9.25;;;;;;;;;;10411500;28;20050;-58
2023/02/17 04:41:28;;;;;;;12.70;8.88;;;;;;;;;;10411498;28;20033;-59
2023/02/17 04:46:28;;;;;;;12.75;9.80;;;;;;;;;;10411951;28;20030;-55
2023/02/17 04:51:29;;;;;;;13.23;10.20;;;;;;;;;;10412125;28;20271;-55
2023/02/17 04:56:29;;;;;;;10.57;9.15;;;;;;;;;;10411030;28;20416;-52
2023/02/17 05:01:30;;;;;;;10.43;8.98;;;;;;;;;;10410891;28;20083;-56
2023/02/17 05:06:31;;;;;;;9.48;8.52;;;;;;;;;;10410978;28;20029;-56
2023/02/17 05:11:31;;;;;;;12.93;9.70;;;;;;;;;;10409840;28;20036;-56
2023/02/17 05:16:32;;;;;;;11.43;9.98;;;;;;;;;;10409971;28;20032;-52
2023/02/17 05:21:32;;;;;;;12.48;9.07;;;;;;;;;;10410074;28;20033;-57
2023/02/17 05:26:33;;;;;;;10.82;9.00;;;;;;;;;;10409882;28;20032;-57
2023/02/17 05:31:34;;;;;;;11.77;9.00;;;;;;;;;;10409026;28;20036;-57
2023/02/17 05:36:34;;;;;;;11.00;9.50;;;;;;;;;;10409823;28;20053;-57
2023/02/17 05:41:35;;;;;;;12.02;9.48;;;;;;;;;;10409089;28;20021;-57
2023/02/17 05:46:35;;;;;;;10.43;8.55;;;;;;;;;;10409050;28;20052;-57
2023/02/17 05:51:36;;;;;;;10.25;8.35;;;;;;;;;;10408835;28;20030;-59
2023/02/17 05:56:38;;;;;;;10.25;9.00;;;;;;;;;;10406877;28;20025;-58
2023/02/17 06:01:38;;;;;;;9.93;8.57;;;;;;;;;;10406968;28;20469;-56
2023/02/17 06:06:39;;;;;;;10.13;8.18;;;;;;;;;;10408179;28;20024;-56
2023/02/17 06:11:39;;;;;;;11.43;8.82;;;;;;;;;;10406340;28;20091;-54
2023/02/17 06:16:40;;;;;;;9.95;8.68;;;;;;;;;;10407971;28;20026;-55
2023/02/17 06:21:40;;;;;;;9.93;8.05;;;;;;;;;;10407449;28;20056;-53
2023/02/17 06:26:41;;;;;;;12.80;8.95;;;;;;;;;;10407751;28;20018;-54
2023/02/17 06:31:41;;;;;;;15.25;11.18;;;;;;;;;;10405495;28;20115;-55
2023/02/17 06:36:42;;;;;;;19.85;13.48;;;;;;;;;;10404605;28;20033;-56
2023/02/17 06:41:43;;;;;;;25.60;17.80;;;;;;;;;;10407199;28;20021;-57
2023/02/17 06:46:45;;;;;;;30.13;20.48;;;;;;;;;;10415373;28;20092;-57
2023/02/17 06:51:46;;;;;;;28.15;21.08;;;;;;;;;;10413729;28;20032;-56
2023/02/17 06:56:46;;;;;;;42.33;21.73;;;;;;;;;;10416727;28;20362;-58
2023/02/17 07:01:49;;;;;;;40.25;20.83;;;;;;;;;;10414385;28;20508;-56
2023/02/17 07:06:49;;;;;;;37.63;21.73;;;;;;;;;;10415434;28;20028;-53
2023/02/17 07:11:50;;;;;;;37.03;22.23;;;;;;;;;;10412589;28;20040;-56
2023/02/17 07:16:51;;;;;;;33.88;20.33;;;;;;;;;;10419199;28;20025;-58
2023/02/17 07:21:51;;;;;;;38.70;20.40;;;;;;;;;;10420327;28;20029;-56
2023/02/17 07:26:54;;;;;;;38.10;19.75;;;;;;;;;;10419784;28;20177;-52
2023/02/17 07:31:55;;;;;;;33.55;18.83;;;;;;;;;;10416435;28;20185;-52
2023/02/17 07:36:56;;;;;;;32.92;19.52;;;;;;;;;;10419179;28;20176;-52
2023/02/17 07:41:59;;;;;;;35.72;19.38;;;;;;;;;;10419714;28;20026;-52
2023/02/17 07:47:00;;;;;;;38.38;18.40;;;;;;;;;;10420309;28;20472;-52
2023/02/17 07:52:00;;;;;;;30.27;18.83;;;;;;;;;;10420047;28;20021;-52
2023/02/17 07:57:01;;;;;;;35.25;17.88;;;;;;;;;;10414265;28;20021;-50
2023/02/17 08:02:02;;;;;;;28.42;17.98;;;;;;;;;;10413232;28;20103;-57
2023/02/17 08:07:03;;;;;;;27.92;17.35;;;;;;;;;;10412839;28;20469;-54
2023/02/17 08:17:22;;;;;;;25.42;16.65;;;;;;;;;;10413175;28;20064;-56
2023/02/17 08:22:23;;;;;;;27.27;17.52;;;;;;;;;;10412284;28;20556;-54
2023/02/17 08:27:24;;;;;;;30.10;17.65;;;;;;;;;;10412088;28;20033;-55
2023/02/17 08:32:25;;;;;;;25.77;16.75;;;;;;;;;;10412453;28;20088;-53
2023/02/17 08:37:25;;;;;;;30.50;17.40;;;;;;;;;;10411487;28;20071;-55
2023/02/17 08:42:26;;;;;;;27.50;16.15;;;;;;;;;;10411385;28;20029;-50
2023/02/17 08:47:27;;;;;;;21.15;16.48;;;;;;;;;;10406420;28;20408;-52
2023/02/17 08:52:27;;;;;;;24.45;16.73;;;;;;;;;;10411099;28;20025;-51
2023/02/17 08:57:28;;;;;;;24.77;16.45;;;;;;;;;;10410748;28;20018;-53
2023/02/17 09:02:29;;;;;;;26.95;16.50;;;;;;;;;;10409431;28;20635;-53
2023/02/17 09:07:29;;;;;;;21.50;16.15;;;;;;;;;;10410038;28;20033;-52
2023/02/17 09:12:30;;;;;;;26.92;16.65;;;;;;;;;;10410349;28;20075;-53
2023/02/17 09:17:30;;;;;;;23.98;16.08;;;;;;;;;;10410158;28;20032;-53
2023/02/17 09:22:31;;;;;;;23.42;15.65;;;;;;;;;;10409913;28;20021;-54
2023/02/17 09:27:31;;;;;;;30.35;17.40;;;;;;;;;;10408944;28;20024;-59
2023/02/17 09:32:32;;;;;;;24.50;15.88;;;;;;;;;;10408444;28;20031;-58
2023/02/17 09:37:33;;;;;;;21.70;15.93;;;;;;;;;;10409043;28;20045;-57
2023/02/17 09:42:39;;;;;;;20.98;15.75;;;;;;;;;;10408714;28;20527;-59
2023/02/17 09:47:51;;;;;;;22.70;15.80;;;;;;;;;;10407702;28;20068;-59
2023/02/17 09:53:01;;;;;;;23.55;17.02;;;;;;;;;;10408827;28;20018;-58
2023/02/17 09:58:14;;;;;;;24.67;16.17;;;;;;;;;;10407541;28;20025;-54
2023/02/17 10:03:24;;;;;;;24.02;16.75;;;;;;;;;;10408272;28;20104;-50
2023/02/17 10:08:39;;;;;;;21.83;15.80;;;;;;;;;;10407338;28;20040;-56
2023/02/17 10:13:41;;;;;;;22.17;16.48;;;;;;;;;;10407008;28;20067;-54
2023/02/17 10:18:56;;;;;;;22.75;15.57;;;;;;;;;;10407706;28;20393;-53
2023/02/17 10:23:56;;;;;;;26.25;15.48;;;;;;;;;;10407616;28;20029;-50
2023/02/17 10:29:04;;;;;;;20.00;15.50;;;;;;;;;;10408061;28;20029;-50
2023/02/17 10:34:12;;;;;;;20.55;14.57;;;;;;;;;;10405442;28;20385;-56
2023/02/17 10:39:22;;;;;;;24.25;16.38;;;;;;;;;;10407410;28;20053;-54
2023/02/17 10:44:24;;;;;;;21.05;15.77;;;;;;;;;;10406365;28;20115;-59
2023/02/17 10:49:35;;;;;;;20.20;15.82;;;;;;;;;;10407862;28;20064;-52
2023/02/17 10:54:41;;;;;;;22.48;15.73;;;;;;;;;;10405947;28;20030;-58
2023/02/17 10:59:46;;;;;;;20.23;14.55;;;;;;;;;;10406426;28;20022;-52
2023/02/17 11:04:53;;;;;;;22.00;14.85;;;;;;;;;;10407336;28;20104;-50
2023/02/17 11:10:01;;;;;;;21.92;15.52;;;;;;;;;;10406599;28;20122;-53
2023/02/17 11:15:13;;;;;;;25.92;14.90;;;;;;;;;;10407339;28;20141;-53
2023/02/17 11:20:14;;;;;;;23.65;16.42;;;;;;;;;;10406489;28;20061;-51
2023/02/17 11:25:27;;;;;;;20.65;15.85;;;;;;;;;;10406589;28;20104;-53
2023/02/17 11:30:31;;;;;;;20.50;14.00;;;;;;;;;;10408835;28;20047;-51
2023/02/17 11:35:35;;;;;;;19.08;14.50;;;;;;;;;;10414313;28;20053;-54
2023/02/17 11:40:35;;;;;;;19.77;14.77;;;;;;;;;;10413956;28;20049;-53
2023/02/17 11:45:57;;;;;;;18.20;13.85;;;;;;;;;;10413642;28;20547;-51
2023/02/17 11:51:06;;;;;;;20.17;14.93;;;;;;;;;;10413861;28;20021;-55
2023/02/17 11:56:10;;;;;;;17.88;13.93;;;;;;;;;;10413485;28;20104;-52
2023/02/17 12:01:49;;;;;;;19.23;14.43;;;;;;;;;;10413469;28;20026;-54
2023/02/17 12:07:40;;;;;;;17.92;13.85;;;;;;;;;;10413630;28;20489;-50
2023/02/17 12:13:15;;;;;;;17.38;13.80;;;;;;;;;;10407670;28;20393;-55
2023/02/17 12:18:34;;;;;;;20.05;14.05;;;;;;;;;;10411863;28;20060;-52
2023/02/17 12:24:01;;;;;;;19.10;13.85;;;;;;;;;;10412058;28;20044;-55
2023/02/17 12:29:45;;;;;;;18.65;13.85;;;;;;;;;;10409299;28;20029;-56
2023/02/17 12:34:58;;;;;;;18.88;13.75;;;;;;;;;;10404660;28;20030;-52
2023/02/17 12:40:45;;;;;;;16.65;13.85;;;;;;;;;;10411985;28;20099;-57
2023/02/17 12:45:47;;;;;;;16.77;13.75;;;;;;;;;;10410540;28;20037;-54
2023/02/17 12:51:06;;;;;;;17.35;13.40;;;;;;;;;;10410077;28;20076;-55
2023/02/17 12:56:38;;;;;;;17.67;13.43;;;;;;;;;;10409778;28;20040;-54
2023/02/17 13:02:04;;;;;;;18.23;13.52;;;;;;;;;;10409729;28;20041;-52
2023/02/17 13:07:42;;;;;;;15.70;13.65;;;;;;;;;;10400591;28;20143;-52
2023/02/17 13:12:53;;;;;;;19.43;13.40;;;;;;;;;;10410316;28;20068;-54
2023/02/17 13:18:02;;;;;;;15.43;12.15;;;;;;;;;;10409709;28;20522;-51
2023/02/17 13:23:24;;;;;;;17.48;13.30;;;;;;;;;;10404264;28;20112;-52
2023/02/17 13:28:36;;;;;;;16.98;12.70;;;;;;;;;;10406409;28;20033;-54
2023/02/17 13:33:48;;;;;;;17.63;13.15;;;;;;;;;;10408356;28;20060;-57
2023/02/17 13:39:00;;;;;;;17.40;12.27;;;;;;;;;;10405282;28;20386;-50
2023/02/17 13:44:27;;;;;;;15.07;12.10;;;;;;;;;;10406110;28;20037;-55
2023/02/17 13:49:32;;;;;;;13.82;11.60;;;;;;;;;;10407445;28;20032;-53
2023/02/17 13:54:33;;;;;;;14.10;11.82;;;;;;;;;;10407649;28;20036;-53
2023/02/17 13:59:33;;;;;;;15.52;11.93;;;;;;;;;;10406597;28;20052;-53
2023/02/17 14:04:36;;;;;;;13.50;10.73;;;;;;;;;;10405315;28;20037;-52
2023/02/17 14:09:52;;;;;;;15.25;11.27;;;;;;;;;;10403081;28;20036;-52
2023/02/17 14:14:53;;;;;;;16.02;12.77;;;;;;;;;;10403587;28;20025;-53
2023/02/17 14:19:53;;;;;;;12.80;10.73;;;;;;;;;;10404467;28;20053;-53
2023/02/17 14:25:07;;;;;;;17.15;11.98;;;;;;;;;;10403714;28;20464;-56
2023/02/17 14:30:35;;;;;;;16.33;12.00;;;;;;;;;;10404256;28;20118;-53
2023/02/17 14:35:38;;;;;;;15.35;11.25;;;;;;;;;;10403957;28;20132;-53
2023/02/17 14:40:38;;;;;;;21.95;11.95;;;;;;;;;;10406525;28;20397;-53
2023/02/17 14:45:39;;;;;;;15.52;11.40;;;;;;;;;;10406303;28;20032;-53
2023/02/17 14:50:43;;;;;;;20.17;11.60;;;;;;;;;;10407129;28;20022;-56
2023/02/17 14:55:49;;;;;;;14.75;11.70;;;;;;;;;;10393868;28;20021;-56
2023/02/17 15:00:50;;;;;;;13.32;10.88;;;;;;;;;;10405731;28;20025;-54
2023/02/17 15:05:51;;;;;;;14.13;11.30;;;;;;;;;;10411468;28;20017;-54
2023/02/17 15:10:52;;;;;;;15.75;10.55;;;;;;;;;;10414511;28;20036;-51
2023/02/17 15:15:52;;;;;;;14.77;11.02;;;;;;;;;;10414253;28;20022;-54
2023/02/17 15:20:53;;;;;;;15.35;10.77;;;;;;;;;;10413931;28;20055;-53
2023/02/17 15:25:55;;;;;;;14.95;11.00;;;;;;;;;;10413621;28;20025;-52
2023/02/17 15:30:55;;;;;;;13.15;10.65;;;;;;;;;;10412800;28;20410;-54
2023/02/17 15:35:56;;;;;;;14.75;10.30;;;;;;;;;;10411386;28;20043;-54
2023/02/17 15:40:57;;;;;;;15.80;11.13;;;;;;;;;;10402479;28;20033;-52
2023/02/17 15:45:58;;;;;;;11.88;9.55;;;;;;;;;;10412724;28;20063;-53
2023/02/17 15:50:58;;;;;;;16.20;10.13;;;;;;;;;;10412811;28;20384;-52
2023/02/17 15:56:02;;;;;;;13.32;10.43;;;;;;;;;;10413208;28;20024;-55
2023/02/17 16:01:02;;;;;;;12.05;9.95;;;;;;;;;;10409838;28;20037;-53
2023/02/17 16:06:03;;;;;;;12.73;10.45;;;;;;;;;;10412265;28;20025;-58
2023/02/17 16:11:04;;;;;;;14.55;10.95;;;;;;;;;;10411972;28;20032;-59
2023/02/17 16:16:13;;;;;;;16.50;12.05;;;;;;;;;;10411324;28;20029;-57
2023/02/17 16:21:14;;;;;;;;;;;;;;;;;;10411896;28;20492;-58
2023/02/17 16:26:30;;;;;;;15.15;11.73;;;;;;;;;;10412323;28;19920;-56
2023/02/17 16:31:31;;;;;;;16.45;11.77;;;;;;;;;;10411025;28;20017;-57
2023/02/17 16:36:34;;;;;;;18.80;12.55;;;;;;;;;;10411518;28;20110;-55
2023/02/17 16:41:34;;;;;;;20.77;12.90;;;;;;;;;;10410805;28;20493;-58
2023/02/17 16:46:36;;;;;;;18.38;12.35;;;;;;;;;;10410659;28;20032;-58
2023/02/17 16:51:37;;;;;;;23.80;12.90;;;;;;;;;;10408979;28;20033;-58
2023/02/17 16:56:43;;;;;;;20.30;13.10;;;;;;;;;;10409445;28;20017;-58
2023/02/17 17:01:45;;;;;;;17.98;12.38;;;;;;;;;;10409432;28;20041;-58
2023/02/17 17:06:49;;;;;;;19.35;11.85;;;;;;;;;;10404365;28;20065;-53
2023/02/17 17:11:50;;;;;;;19.15;11.88;;;;;;;;;;10410056;28;20034;-55
2023/02/17 17:16:55;;;;;;;17.27;11.20;;;;;;;;;;10410059;28;20022;-52
2023/02/17 17:21:55;;;;;;;17.08;11.52;;;;;;;;;;10408462;28;20049;-56
2023/02/17 17:26:56;;;;;;;18.63;11.45;;;;;;;;;;10404157;28;20401;-52
2023/02/17 17:31:57;;;;;;;15.48;11.40;;;;;;;;;;10401994;28;20033;-58
2023/02/17 17:36:58;;;;;;;14.07;11.07;;;;;;;;;;10403732;28;20045;-54
2023/02/17 17:41:59;;;;;;;16.55;11.10;;;;;;;;;;10404938;28;20037;-53
2023/02/17 17:46:59;;;;;;;17.58;10.70;;;;;;;;;;10406698;28;20381;-53
2023/02/17 17:52:00;;;;;;;18.77;10.55;;;;;;;;;;10401495;28;20025;-54
2023/02/17 17:57:00;;;;;;;19.02;10.50;;;;;;;;;;10403413;28;20101;-58
2023/02/17 18:02:01;;;;;;;14.23;9.98;;;;;;;;;;10395492;28;20052;-56
2023/02/17 18:07:02;;;;;;;12.02;9.98;;;;;;;;;;10398222;28;20029;-55
2023/02/17 18:12:16;;;;;;;12.70;9.25;;;;;;;;;;10402982;28;20412;-57
2023/02/17 18:17:19;;;;;;;15.27;9.80;;;;;;;;;;10374492;28;20021;-57
2023/02/17 18:22:23;;;;;;;13.73;8.98;;;;;;;;;;10395833;28;20465;-55
2023/02/17 18:27:23;;;;;;;11.85;9.77;;;;;;;;;;10403390;28;20029;-56
2023/02/17 18:32:24;;;;;;;15.35;10.60;;;;;;;;;;10400344;28;20385;-56
2023/02/17 18:37:25;;;;;;;13.23;10.38;;;;;;;;;;10406209;28;20464;-55
2023/02/17 18:42:25;;;;;;;18.25;10.90;;;;;;;;;;10403342;28;20037;-55
2023/02/17 18:47:26;;;;;;;16.60;11.80;;;;;;;;;;10396084;28;20474;-54
2023/02/17 18:52:26;;;;;;;15.88;11.85;;;;;;;;;;10403367;28;20037;-54
2023/02/17 18:57:27;;;;;;;15.50;11.07;;;;;;;;;;10402327;28;20056;-57
2023/02/17 19:02:28;;;;;;;15.50;11.25;;;;;;;;;;10402483;28;20052;-56
2023/02/17 19:07:28;;;;;;;18.27;11.68;;;;;;;;;;10403538;28;20081;-56
2023/02/17 19:12:29;;;;;;;20.40;11.45;;;;;;;;;;10406115;28;20036;-54
2023/02/17 19:17:30;;;;;;;15.35;11.18;;;;;;;;;;10406511;28;20029;-56
2023/02/17 19:22:35;;;;;;;17.30;11.88;;;;;;;;;;10403110;28;20477;-54
2023/02/17 19:27:39;;;;;;;16.05;12.38;;;;;;;;;;10399585;28;20048;-55
2023/02/17 19:32:40;;;;;;;18.42;12.50;;;;;;;;;;10401357;28;20083;-55
2023/02/17 19:37:40;;;;;;;17.08;13.13;;;;;;;;;;10402677;28;20386;-52
2023/02/17 19:42:41;;;;;;;34.85;14.32;;;;;;;;;;10399348;28;20529;-57
2023/02/17 19:47:41;;;;;;;25.92;16.38;;;;;;;;;;10394248;28;20476;-58
2023/02/17 19:52:42;;;;;;;33.35;17.35;;;;;;;;;;10410283;28;20465;-57
2023/02/17 19:57:42;;;;;;;30.23;17.70;;;;;;;;;;10404104;28;20100;-56
2023/02/17 20:02:43;;;;;;;24.02;15.50;;;;;;;;;;10403766;28;20033;-56
2023/02/17 20:07:44;;;;;;;25.70;16.17;;;;;;;;;;10412625;28;20025;-58
2023/02/17 20:12:44;;;;;;;23.83;14.93;;;;;;;;;;10400317;28;20057;-58
2023/02/17 20:17:45;;;;;;;23.15;14.73;;;;;;;;;;10398965;28;20479;-59
2023/02/17 20:22:46;;;;;;;27.80;15.48;;;;;;;;;;10408160;28;20036;-56
2023/02/17 20:27:46;;;;;;;22.55;15.35;;;;;;;;;;10404471;28;20201;-57
2023/02/17 20:32:47;;;;;;;26.88;15.23;;;;;;;;;;10404574;28;20434;-57
2023/02/17 20:37:47;;;;;;;24.58;15.18;;;;;;;;;;10404886;28;20463;-59
2023/02/17 20:42:48;;;;;;;25.27;14.32;;;;;;;;;;10402236;28;20048;-58
2023/02/17 20:47:48;;;;;;;31.95;14.38;;;;;;;;;;10404130;28;20026;-59
2023/02/17 20:52:49;;;;;;;23.23;15.52;;;;;;;;;;10405690;28;20095;-59
2023/02/17 20:57:58;;;;;;;26.00;14.30;;;;;;;;;;10408076;28;20497;-59
2023/02/17 21:02:59;;;;;;;29.55;15.20;;;;;;;;;;10408908;28;20427;-59
2023/02/17 21:07:59;;;;;;;24.67;14.02;;;;;;;;;;10399141;28;20041;-59
2023/02/17 21:13:00;;;;;;;27.45;14.52;;;;;;;;;;10405814;28;20026;-59
2023/02/17 21:18:01;;;;;;;25.30;13.80;;;;;;;;;;10410228;28;20469;-52
2023/02/17 21:23:02;;;;;;;29.20;14.30;;;;;;;;;;10409209;28;20061;-56
2023/02/17 21:28:03;;;;;;;24.05;13.43;;;;;;;;;;10407573;28;20021;-58
2023/02/17 21:33:05;;;;;;;35.63;14.45;;;;;;;;;;10410598;28;20040;-58
2023/02/17 21:38:05;;;;;;;25.60;13.65;;;;;;;;;;10409506;28;20258;-58
2023/02/17 21:48:26;;;;;;;20.52;13.57;;;;;;;;;;10409547;28;20045;-58
2023/02/17 21:53:27;;;;;;;22.98;13.07;;;;;;;;;;10408123;28;20392;-55
2023/02/17 21:58:29;;;;;;;19.67;12.90;;;;;;;;;;10400922;28;20366;-56
2023/02/17 22:03:30;;;;;;;25.40;12.45;;;;;;;;;;10402718;28;20112;-56
2023/02/17 22:08:30;;;;;;;23.02;12.30;;;;;;;;;;10407073;28;20032;-58
2023/02/17 22:13:31;;;;;;;16.80;12.70;;;;;;;;;;10407066;28;20033;-58
2023/02/17 22:18:31;;;;;;;20.50;12.82;;;;;;;;;;10407286;28;20017;-55
2023/02/17 22:23:32;;;;;;;20.27;12.05;;;;;;;;;;10406343;28;20075;-59
2023/02/17 22:28:33;;;;;;;15.90;12.20;;;;;;;;;;10407534;28;20036;-54
2023/02/17 22:33:33;;;;;;;17.98;12.40;;;;;;;;;;10407761;28;20030;-59
2023/02/17 22:38:34;;;;;;;20.65;12.35;;;;;;;;;;10407478;28;20065;-57
2023/02/17 22:43:37;;;;;;;20.83;11.13;;;;;;;;;;10407935;28;20056;-58
2023/02/17 22:48:38;;;;;;;17.88;11.25;;;;;;;;;;10407088;28;20029;-57
2023/02/17 22:53:39;;;;;;;17.83;11.27;;;;;;;;;;10407314;28;20025;-56
2023/02/17 22:58:39;;;;;;;15.55;10.85;;;;;;;;;;10407523;28;20029;-54
2023/02/17 23:03:40;;;;;;;19.13;11.50;;;;;;;;;;10407400;28;20029;-53
2023/02/17 23:08:42;;;;;;;14.18;10.18;;;;;;;;;;10406579;28;20034;-51
2023/02/17 23:13:43;;;;;;;16.88;11.02;;;;;;;;;;10406927;28;20477;-54
2023/02/17 23:18:44;;;;;;;17.05;11.07;;;;;;;;;;10407015;28;20026;-52
2023/02/17 23:23:45;;;;;;;15.48;11.27;;;;;;;;;;10407124;28;20038;-55
2023/02/17 23:28:45;;;;;;;21.08;11.18;;;;;;;;;;10414342;28;20033;-52
2023/02/17 23:33:46;;;;;;;20.13;10.82;;;;;;;;;;10414773;28;20037;-54
2023/02/17 23:38:46;;;;;;;15.35;11.35;;;;;;;;;;10414316;28;20042;-54
2023/02/17 23:43:47;;;;;;;18.20;11.80;;;;;;;;;;10414012;28;20033;-57
2023/02/17 23:48:47;;;;;;;15.98;10.77;;;;;;;;;;10413855;28;20017;-56
2023/02/17 23:53:48;;;;;;;14.48;11.00;;;;;;;;;;10413688;28;20067;-57
2023/02/17 23:58:49;;;;;;;15.32;11.13;;;;;;;;;;10413574;28;20033;-58
